createdAt,value
2019-03-03T00:00:21.245Z,9.80
2019-03-03T00:02:49.006Z,9.80
2019-03-03T00:05:16.449Z,9.50
2019-03-03T00:07:44.192Z,9.60
2019-03-03T00:10:11.762Z,9.40
2019-03-03T00:12:39.170Z,9.50
2019-03-03T00:15:06.652Z,9.50
2019-03-03T00:17:34.305Z,9.50
2019-03-03T00:20:01.780Z,9.50
2019-03-03T00:22:29.210Z,9.60
2019-03-03T00:24:56.557Z,9.50
2019-03-03T00:27:24.004Z,9.80
2019-03-03T00:29:51.402Z,9.80
2019-03-03T00:32:18.726Z,9.60
2019-03-03T00:34:46.042Z,9.50
2019-03-03T00:37:27.829Z,9.50
2019-03-03T00:40:23.326Z,9.50
2019-03-03T00:42:56.311Z,9.40
2019-03-03T00:45:51.790Z,9.30
2019-03-03T00:48:37.097Z,9.20
2019-03-03T00:51:26.679Z,9.10
2019-03-03T00:54:04.270Z,9.30
2019-03-03T00:56:54.090Z,9.10
2019-03-03T00:59:33.712Z,9.20
2019-03-03T01:02:20.652Z,9.30
2019-03-03T01:04:54.204Z,9.20
2019-03-03T01:07:31.284Z,9.10
2019-03-03T01:10:18.211Z,9.20
2019-03-03T01:12:55.824Z,9.40
2019-03-03T01:15:42.110Z,9.40
2019-03-03T01:18:29.022Z,9.40
2019-03-03T01:21:00.644Z,9.30
2019-03-03T01:23:53.406Z,9.10
2019-03-03T01:26:20.806Z,9.10
2019-03-03T01:28:48.530Z,8.90
2019-03-03T01:31:16.110Z,9.00
2019-03-03T01:33:43.534Z,9.00
2019-03-03T01:36:10.863Z,9.00
2019-03-03T01:38:38.262Z,9.20
2019-03-03T01:41:06.367Z,9.10
2019-03-03T01:43:34.115Z,9.30
2019-03-03T01:46:01.478Z,9.30
2019-03-03T01:48:28.786Z,9.10
2019-03-03T01:50:56.194Z,9.20
2019-03-03T01:53:23.476Z,9.10
2019-03-03T01:55:50.900Z,9.20
2019-03-03T01:58:18.277Z,9.00
2019-03-03T02:00:45.740Z,8.90
2019-03-03T02:03:13.122Z,9.00
2019-03-03T02:05:40.462Z,9.20
2019-03-03T02:08:08.047Z,9.10
2019-03-03T02:10:35.556Z,9.10
2019-03-03T02:13:02.975Z,9.00
2019-03-03T02:15:30.280Z,8.90
2019-03-03T02:17:57.576Z,8.90
2019-03-03T02:20:24.979Z,8.90
2019-03-03T02:22:52.276Z,8.90
2019-03-03T02:25:19.694Z,9.20
2019-03-03T02:27:47.066Z,9.30
2019-03-03T02:30:16.219Z,9.30
2019-03-03T02:32:43.596Z,9.30
2019-03-03T02:35:10.992Z,9.40
2019-03-03T02:37:38.280Z,9.40
2019-03-03T02:40:07.040Z,9.40
2019-03-03T02:42:34.436Z,9.50
2019-03-03T02:45:01.831Z,9.40
2019-03-03T02:47:29.252Z,9.60
2019-03-03T02:49:56.633Z,9.60
2019-03-03T02:52:23.934Z,9.60
2019-03-03T02:54:51.347Z,9.60
2019-03-03T02:57:18.760Z,9.40
2019-03-03T02:59:46.211Z,9.30
2019-03-03T03:02:33.203Z,9.30
2019-03-03T03:05:00.481Z,9.30
2019-03-03T03:07:53.267Z,9.30
2019-03-03T03:10:34.367Z,9.20
2019-03-03T03:13:27.099Z,9.30
2019-03-03T03:15:59.722Z,9.40
2019-03-03T03:18:49.236Z,9.30
2019-03-03T03:21:32.907Z,9.10
2019-03-03T03:24:19.817Z,9.10
2019-03-03T03:27:02.488Z,9.20
2019-03-03T03:29:55.105Z,9.10
2019-03-03T03:32:27.803Z,8.90
2019-03-03T03:35:03.394Z,8.90
2019-03-03T03:37:49.494Z,9.00
2019-03-03T03:40:42.316Z,8.90
2019-03-03T03:43:19.532Z,9.10
2019-03-03T03:46:18.666Z,9.20
2019-03-03T03:49:04.146Z,9.00
2019-03-03T03:51:42.735Z,8.90
2019-03-03T03:54:28.448Z,8.90
2019-03-03T03:57:30.723Z,9.00
2019-03-03T04:00:08.003Z,9.00
2019-03-03T04:02:54.898Z,9.00
2019-03-03T04:05:28.672Z,8.90
2019-03-03T04:08:09.461Z,9.10
2019-03-03T04:10:54.896Z,9.10
2019-03-03T04:13:40.871Z,9.20
2019-03-03T04:16:33.265Z,8.80
2019-03-03T04:19:22.703Z,9.00
2019-03-03T04:22:12.367Z,8.90
2019-03-03T04:24:48.682Z,9.00
2019-03-03T04:27:53.644Z,9.10
2019-03-03T04:30:31.861Z,9.10
2019-03-03T04:33:27.396Z,9.00
2019-03-03T04:36:26.320Z,9.10
2019-03-03T04:39:13.156Z,8.90
2019-03-03T04:42:18.390Z,8.80
2019-03-03T04:45:00.695Z,8.80
2019-03-03T04:47:45.680Z,8.60
2019-03-03T04:50:20.495Z,8.60
2019-03-03T04:53:03.854Z,8.60
2019-03-03T04:56:06.050Z,8.60
2019-03-03T04:58:43.802Z,8.80
2019-03-03T05:01:29.488Z,8.60
2019-03-03T05:04:03.084Z,8.60
2019-03-03T05:06:55.891Z,8.70
2019-03-03T05:09:32.607Z,8.80
2019-03-03T05:12:42.147Z,8.70
2019-03-03T05:15:30.041Z,8.80
2019-03-03T05:18:20.123Z,8.70
2019-03-03T05:20:49.668Z,8.50
2019-03-03T05:23:17.310Z,8.40
2019-03-03T05:25:44.661Z,8.50
2019-03-03T05:28:12.069Z,8.40
2019-03-03T05:30:39.501Z,8.40
2019-03-03T05:33:07.215Z,8.30
2019-03-03T05:35:34.618Z,8.30
2019-03-03T05:38:01.909Z,8.10
2019-03-03T05:40:29.323Z,8.30
2019-03-03T05:42:56.933Z,8.40
2019-03-03T05:45:24.244Z,8.20
2019-03-03T05:47:51.651Z,8.00
2019-03-03T05:50:19.404Z,8.20
2019-03-03T05:52:46.764Z,7.90
2019-03-03T05:55:14.109Z,7.90
2019-03-03T05:57:41.403Z,8.00
2019-03-03T06:00:09.313Z,8.10
2019-03-03T06:02:36.597Z,8.20
2019-03-03T06:05:04.491Z,8.10
2019-03-03T06:07:31.887Z,7.80
2019-03-03T06:09:59.199Z,7.60
2019-03-03T06:12:26.597Z,7.60
2019-03-03T06:14:53.885Z,7.70
2019-03-03T06:17:21.240Z,7.70
2019-03-03T06:19:48.569Z,7.90
2019-03-03T06:22:15.983Z,7.90
2019-03-03T06:24:43.377Z,7.90
2019-03-03T06:27:10.755Z,7.80
2019-03-03T06:29:38.152Z,7.80
2019-03-03T06:32:05.437Z,7.80
2019-03-03T06:34:32.754Z,7.80
2019-03-03T06:37:00.096Z,7.90
2019-03-03T06:39:27.509Z,7.70
2019-03-03T06:41:54.823Z,7.60
2019-03-03T06:44:22.261Z,7.70
2019-03-03T06:46:49.674Z,7.90
2019-03-03T06:49:17.075Z,7.90
2019-03-03T06:51:44.484Z,7.90
2019-03-03T06:54:11.802Z,7.90
2019-03-03T06:56:39.106Z,7.80
2019-03-03T06:59:06.516Z,8.00
2019-03-03T07:01:33.837Z,7.90
2019-03-03T07:04:01.457Z,7.90
2019-03-03T07:06:28.875Z,8.10
2019-03-03T07:08:56.266Z,7.90
2019-03-03T07:11:23.582Z,8.00
2019-03-03T07:13:50.901Z,8.10
2019-03-03T07:16:18.280Z,8.10
2019-03-03T07:18:45.581Z,8.10
2019-03-03T07:21:12.888Z,8.10
2019-03-03T07:23:40.264Z,8.10
2019-03-03T07:26:07.686Z,8.10
2019-03-03T07:28:35.097Z,8.10
2019-03-03T07:31:02.437Z,8.30
2019-03-03T07:33:31.737Z,8.30
2019-03-03T07:35:59.130Z,8.20
2019-03-03T07:38:26.586Z,8.20
2019-03-03T07:40:53.988Z,8.30
2019-03-03T07:43:21.362Z,8.40
2019-03-03T07:45:48.826Z,8.30
2019-03-03T07:48:16.260Z,8.10
2019-03-03T07:50:43.686Z,8.30
2019-03-03T07:53:11.055Z,8.50
2019-03-03T07:55:38.458Z,8.50
2019-03-03T07:58:05.859Z,8.80
2019-03-03T08:00:33.251Z,8.90
2019-03-03T08:03:00.676Z,8.80
2019-03-03T08:05:27.954Z,8.60
2019-03-03T08:07:55.317Z,8.90
2019-03-03T08:10:22.798Z,9.00
2019-03-03T08:12:50.190Z,9.10
2019-03-03T08:15:17.518Z,9.20
2019-03-03T08:17:44.929Z,9.20
2019-03-03T08:20:12.286Z,9.50
2019-03-03T08:22:39.674Z,9.60
2019-03-03T08:25:07.453Z,9.70
2019-03-03T08:27:35.175Z,9.60
2019-03-03T08:30:03.438Z,9.50
2019-03-03T08:32:30.853Z,9.70
2019-03-03T08:34:58.190Z,9.90
2019-03-03T08:37:25.659Z,10.00
2019-03-03T08:39:53.331Z,10.30
2019-03-03T08:42:33.870Z,10.00
2019-03-03T08:45:19.740Z,10.10
2019-03-03T08:47:53.575Z,9.90
2019-03-03T08:50:28.886Z,9.70
2019-03-03T08:53:02.581Z,9.60
2019-03-03T08:55:55.238Z,9.90
2019-03-03T08:58:33.717Z,10.20
2019-03-03T09:01:26.582Z,10.40
2019-03-03T09:04:28.775Z,10.40
2019-03-03T09:07:34.250Z,10.40
2019-03-03T09:10:13.594Z,10.60
2019-03-03T09:13:00.508Z,10.70
2019-03-03T09:15:46.172Z,10.80
2019-03-03T09:18:21.707Z,10.60
2019-03-03T09:21:01.468Z,10.70
2019-03-03T09:23:47.062Z,11.10
2019-03-03T09:26:33.257Z,11.50
2019-03-03T09:29:08.438Z,11.80
2019-03-03T09:32:07.673Z,12.00
2019-03-03T09:35:06.669Z,12.20
2019-03-03T09:37:43.030Z,12.40
2019-03-03T09:40:25.855Z,12.50
2019-03-03T09:43:19.029Z,12.50
2019-03-03T09:46:06.400Z,12.50
2019-03-03T09:48:51.931Z,12.70
2019-03-03T09:51:38.909Z,13.10
2019-03-03T09:54:13.904Z,13.00
2019-03-03T09:56:59.444Z,12.90
2019-03-03T09:59:55.690Z,13.50
2019-03-03T10:02:35.780Z,13.80
2019-03-03T10:05:21.728Z,13.70
2019-03-03T10:08:11.583Z,13.40
2019-03-03T10:10:54.448Z,13.00
2019-03-03T10:13:33.262Z,13.10
2019-03-03T10:16:35.672Z,12.80
2019-03-03T10:19:31.670Z,13.00
2019-03-03T10:22:22.096Z,13.20
2019-03-03T10:25:07.742Z,13.00
2019-03-03T10:27:46.080Z,12.60
2019-03-03T10:30:31.899Z,12.90
2019-03-03T10:33:21.977Z,13.60
2019-03-03T10:36:07.431Z,14.10
2019-03-03T10:38:48.662Z,14.80
2019-03-03T10:41:34.433Z,15.20
2019-03-03T10:44:11.288Z,14.70
2019-03-03T10:46:52.409Z,14.30
2019-03-03T10:49:33.048Z,14.10
2019-03-03T10:52:14.573Z,14.40
2019-03-03T10:55:00.331Z,14.20
2019-03-03T10:57:48.084Z,15.00
2019-03-03T11:00:47.271Z,15.00
2019-03-03T11:03:25.412Z,15.40
2019-03-03T11:06:10.081Z,15.70
2019-03-03T11:08:47.401Z,15.50
2019-03-03T11:11:40.554Z,15.00
2019-03-03T11:14:26.143Z,14.80
2019-03-03T11:17:12.130Z,14.40
2019-03-03T11:19:55.591Z,14.60
2019-03-03T11:22:41.335Z,15.60
2019-03-03T11:25:33.872Z,16.40
2019-03-03T11:28:25.397Z,16.50
2019-03-03T11:31:14.959Z,16.20
2019-03-03T11:34:04.853Z,16.00
2019-03-03T11:36:39.932Z,16.20
2019-03-03T11:39:16.240Z,16.40
2019-03-03T11:41:56.346Z,17.40
2019-03-03T11:44:43.335Z,17.90
2019-03-03T11:47:28.830Z,19.00
2019-03-03T11:50:04.523Z,19.60
2019-03-03T11:52:54.746Z,20.20
2019-03-03T11:55:36.684Z,20.80
2019-03-03T11:58:24.010Z,20.80
2019-03-03T12:01:03.025Z,20.70
2019-03-03T12:03:56.009Z,19.00
2019-03-03T12:06:35.018Z,18.40
2019-03-03T12:09:20.530Z,19.40
2019-03-03T12:12:06.279Z,20.30
2019-03-03T12:14:52.178Z,20.00
2019-03-03T12:17:39.164Z,19.20
2019-03-03T12:20:29.985Z,18.90
2019-03-03T12:23:20.262Z,18.30
2019-03-03T12:26:10.592Z,17.50
2019-03-03T12:29:11.629Z,17.10
2019-03-03T12:31:59.493Z,16.90
2019-03-03T12:34:44.839Z,15.80
2019-03-03T12:37:44.113Z,15.70
2019-03-03T12:40:31.102Z,15.40
2019-03-03T12:43:16.758Z,15.20
2019-03-03T12:46:06.686Z,15.40
2019-03-03T12:48:56.284Z,15.40
2019-03-03T12:51:41.900Z,15.50
2019-03-03T12:54:29.007Z,16.00
2019-03-03T12:57:15.042Z,16.70
2019-03-03T12:59:58.320Z,17.30
2019-03-03T13:02:39.372Z,17.50
2019-03-03T13:05:44.898Z,17.60
2019-03-03T13:08:30.431Z,17.70
2019-03-03T13:11:15.734Z,18.10
2019-03-03T13:14:03.551Z,18.20
2019-03-03T13:16:59.783Z,18.00
2019-03-03T13:19:38.390Z,17.90
2019-03-03T13:22:15.367Z,17.60
2019-03-03T13:24:53.009Z,17.00
2019-03-03T13:27:33.764Z,17.10
2019-03-03T13:30:30.269Z,17.30
2019-03-03T13:33:23.917Z,17.50
2019-03-03T13:36:01.565Z,16.70
2019-03-03T13:38:43.560Z,16.80
2019-03-03T13:41:36.344Z,16.70
2019-03-03T13:44:03.955Z,16.50
2019-03-03T13:46:31.423Z,16.30
2019-03-03T13:48:58.882Z,16.70
2019-03-03T13:51:26.744Z,17.10
2019-03-03T13:53:56.041Z,17.80
2019-03-03T13:56:24.132Z,18.40
2019-03-03T13:58:51.575Z,18.90
2019-03-03T14:01:19.167Z,18.50
2019-03-03T14:03:46.763Z,18.90
2019-03-03T14:06:14.161Z,18.80
2019-03-03T14:08:41.840Z,18.30
2019-03-03T14:11:09.352Z,17.70
2019-03-03T14:13:36.810Z,17.60
2019-03-03T14:16:04.335Z,17.80
2019-03-03T14:18:31.700Z,17.60
2019-03-03T14:20:59.251Z,17.30
2019-03-03T14:23:26.765Z,16.90
2019-03-03T14:25:54.229Z,16.10
2019-03-03T14:28:21.748Z,16.00
2019-03-03T14:30:49.569Z,15.80
2019-03-03T14:33:17.097Z,15.70
2019-03-03T14:35:44.511Z,15.60
2019-03-03T14:38:11.984Z,15.40
2019-03-03T14:40:39.674Z,15.50
2019-03-03T14:43:07.083Z,15.90
2019-03-03T14:45:34.424Z,15.90
2019-03-03T14:48:01.782Z,15.80
2019-03-03T14:50:29.229Z,15.50
2019-03-03T14:52:56.739Z,15.30
2019-03-03T14:55:24.432Z,15.30
2019-03-03T14:57:51.909Z,15.10
2019-03-03T15:00:26.757Z,14.70
2019-03-03T15:02:54.932Z,14.60
2019-03-03T15:05:22.371Z,14.60
2019-03-03T15:07:50.133Z,14.40
2019-03-03T15:10:17.683Z,14.50
2019-03-03T15:12:45.188Z,14.70
2019-03-03T15:15:12.841Z,14.70
2019-03-03T15:17:40.275Z,14.30
2019-03-03T15:20:07.750Z,14.40
2019-03-03T15:22:35.100Z,14.20
2019-03-03T15:25:02.666Z,14.40
2019-03-03T15:27:30.563Z,14.50
2019-03-03T15:29:58.240Z,14.60
2019-03-03T15:32:25.946Z,14.70
2019-03-03T15:34:53.512Z,14.80
2019-03-03T15:37:21.341Z,14.90
2019-03-03T15:39:49.013Z,14.80
2019-03-03T15:42:16.544Z,14.50
2019-03-03T15:44:44.096Z,14.40
2019-03-03T15:47:11.583Z,14.30
2019-03-03T15:49:39.397Z,14.00
2019-03-03T15:52:06.899Z,14.10
2019-03-03T15:54:34.430Z,14.00
2019-03-03T15:57:01.901Z,13.70
2019-03-03T15:59:29.409Z,13.80
2019-03-03T16:01:56.964Z,13.90
2019-03-03T16:04:24.655Z,13.90
2019-03-03T16:06:52.517Z,14.00
2019-03-03T16:09:19.976Z,14.00
2019-03-03T16:11:47.440Z,13.80
2019-03-03T16:14:14.974Z,13.80
2019-03-03T16:16:42.455Z,13.70
2019-03-03T16:19:10.352Z,13.70
2019-03-03T16:21:37.898Z,13.60
2019-03-03T16:24:05.363Z,13.60
2019-03-03T16:26:32.929Z,13.80
2019-03-03T16:29:00.542Z,13.50
2019-03-03T16:31:28.055Z,13.40
2019-03-03T16:33:55.435Z,13.50
2019-03-03T16:36:23.115Z,13.40
2019-03-03T16:38:50.787Z,13.30
2019-03-03T16:41:18.577Z,13.30
2019-03-03T16:43:46.006Z,13.40
2019-03-03T16:46:15.727Z,13.20
2019-03-03T16:48:42.874Z,13.20
2019-03-03T16:51:10.346Z,13.10
2019-03-03T16:53:37.958Z,13.00
2019-03-03T16:56:05.939Z,13.00
2019-03-03T16:58:33.443Z,13.10
2019-03-03T17:01:00.986Z,13.20
2019-03-03T17:03:28.896Z,13.00
2019-03-03T17:05:56.479Z,12.90
2019-03-03T17:08:23.941Z,13.10
2019-03-03T17:10:51.430Z,13.00
2019-03-03T17:13:18.922Z,12.90
2019-03-03T17:15:46.677Z,12.90
2019-03-03T17:18:14.328Z,12.80
2019-03-03T17:20:41.828Z,12.80
2019-03-03T17:23:09.288Z,12.90
2019-03-03T17:25:36.849Z,13.00
2019-03-03T17:28:04.301Z,12.90
2019-03-03T17:30:32.134Z,12.90
2019-03-03T17:32:59.599Z,12.90
2019-03-03T17:35:27.113Z,12.80
2019-03-03T17:37:56.506Z,12.90
2019-03-03T17:40:23.892Z,12.80
2019-03-03T17:42:51.993Z,12.90
2019-03-03T17:45:19.658Z,12.90
2019-03-03T17:47:47.069Z,12.90
2019-03-03T17:50:15.297Z,12.80
2019-03-03T17:52:44.867Z,12.90
2019-03-03T17:55:13.479Z,12.70
2019-03-03T17:57:41.047Z,12.70
2019-03-03T18:00:11.506Z,12.60
2019-03-03T18:02:39.019Z,12.60
2019-03-03T18:05:06.587Z,12.40
2019-03-03T18:07:34.481Z,12.50
2019-03-03T18:10:01.903Z,12.70
2019-03-03T18:12:29.421Z,12.80
2019-03-03T18:14:57.800Z,12.60
2019-03-03T18:17:25.448Z,12.40
2019-03-03T18:19:53.024Z,12.30
2019-03-03T18:22:21.149Z,12.30
2019-03-03T18:24:48.692Z,12.40
2019-03-03T18:27:16.334Z,12.40
2019-03-03T18:29:43.821Z,12.20
2019-03-03T18:32:11.674Z,12.10
2019-03-03T18:34:40.059Z,12.10
2019-03-03T18:37:07.972Z,12.30
2019-03-03T18:39:35.696Z,12.40
2019-03-03T18:42:03.387Z,12.40
2019-03-03T18:44:30.950Z,12.40
2019-03-03T18:46:58.577Z,12.30
2019-03-03T18:49:26.510Z,12.40
2019-03-03T18:51:54.065Z,12.50
2019-03-03T18:54:21.642Z,12.30
2019-03-03T18:56:49.198Z,12.10
2019-03-03T18:59:16.656Z,12.10
2019-03-03T19:01:44.025Z,12.10
2019-03-03T19:04:11.686Z,12.10
2019-03-03T19:06:39.556Z,12.20
2019-03-03T19:09:09.949Z,11.90
2019-03-03T19:11:37.562Z,11.70
2019-03-03T19:14:05.187Z,11.60
2019-03-03T19:16:33.287Z,11.50
2019-03-03T19:19:00.877Z,11.60
2019-03-03T19:21:28.478Z,11.40
2019-03-03T19:23:56.043Z,11.70
2019-03-03T19:26:24.295Z,11.70
2019-03-03T19:28:52.386Z,11.90
2019-03-03T19:31:20.981Z,12.00
2019-03-03T19:33:51.506Z,11.60
2019-03-03T19:36:19.109Z,11.60
2019-03-03T19:38:46.811Z,11.60
2019-03-03T19:41:15.043Z,11.50
2019-03-03T19:43:42.606Z,11.50
2019-03-03T19:46:10.400Z,11.80
2019-03-03T19:48:39.543Z,11.80
2019-03-03T19:51:07.300Z,11.70
2019-03-03T19:53:34.958Z,11.90
2019-03-03T19:56:03.069Z,12.10
2019-03-03T19:58:31.488Z,12.20
2019-03-03T20:00:59.027Z,12.40
2019-03-03T20:03:26.853Z,12.30
2019-03-03T20:05:54.406Z,12.40
2019-03-03T20:08:22.387Z,12.20
2019-03-03T20:10:50.008Z,12.40
2019-03-03T20:13:17.663Z,12.30
2019-03-03T20:15:45.609Z,12.20
2019-03-03T20:18:13.364Z,12.00
2019-03-03T20:20:40.931Z,11.70
2019-03-03T20:23:08.759Z,11.60
2019-03-03T20:25:36.303Z,11.60
2019-03-03T20:28:04.028Z,11.70
2019-03-03T20:30:31.581Z,11.90
2019-03-03T20:32:59.008Z,11.90
2019-03-03T20:35:26.440Z,11.80
2019-03-03T20:37:54.032Z,11.90
2019-03-03T20:40:21.842Z,12.00
2019-03-03T20:42:49.322Z,12.10
2019-03-03T20:45:18.970Z,12.10
2019-03-03T20:47:46.493Z,12.30
2019-03-03T20:50:16.288Z,12.10
2019-03-03T20:52:43.858Z,12.00
2019-03-03T20:55:12.946Z,11.90
2019-03-03T20:57:40.512Z,11.90
2019-03-03T21:00:11.948Z,11.90
2019-03-03T21:02:39.436Z,12.00
2019-03-03T21:05:06.975Z,11.90
2019-03-03T21:07:34.460Z,11.90
2019-03-03T21:10:02.025Z,12.00
2019-03-03T21:12:29.520Z,11.90
2019-03-03T21:14:57.024Z,11.90
2019-03-03T21:17:24.636Z,11.50
2019-03-03T21:19:52.137Z,11.70
2019-03-03T21:22:19.971Z,11.70
2019-03-03T21:24:49.228Z,11.70
2019-03-03T21:27:16.730Z,11.50
2019-03-03T21:29:44.190Z,11.40
2019-03-03T21:32:11.673Z,11.40
2019-03-03T21:34:40.030Z,11.20
2019-03-03T21:37:07.501Z,11.20
2019-03-03T21:39:34.974Z,11.10
2019-03-03T21:42:02.428Z,11.00
2019-03-03T21:44:29.887Z,11.00
2019-03-03T21:46:57.621Z,10.90
2019-03-03T21:49:25.043Z,11.00
2019-03-03T21:51:52.894Z,10.90
2019-03-03T21:54:20.400Z,10.90
2019-03-03T21:56:47.810Z,10.70
2019-03-03T21:59:15.272Z,10.60
2019-03-03T22:01:42.664Z,10.50
2019-03-03T22:04:10.125Z,10.80
2019-03-03T22:06:37.612Z,10.70
2019-03-03T22:09:07.441Z,10.60
2019-03-03T22:11:34.854Z,10.60
2019-03-03T22:14:02.330Z,10.70
2019-03-03T22:16:30.031Z,10.60
2019-03-03T22:18:57.579Z,10.50
2019-03-03T22:21:24.928Z,10.60
2019-03-03T22:23:52.712Z,10.60
2019-03-03T22:26:20.191Z,10.60
2019-03-03T22:28:47.630Z,10.30
2019-03-03T22:31:14.978Z,10.40
2019-03-03T22:33:42.313Z,10.70
2019-03-03T22:36:09.727Z,11.00
2019-03-03T22:38:37.461Z,10.90
2019-03-03T22:41:05.193Z,11.00
2019-03-03T22:43:32.648Z,10.90
2019-03-03T22:46:00.460Z,10.70
2019-03-03T22:48:27.795Z,10.50
2019-03-03T22:50:55.361Z,10.60
2019-03-03T22:53:23.500Z,10.60
2019-03-03T22:55:51.075Z,10.80
2019-03-03T22:58:18.504Z,10.80
2019-03-03T23:01:01.891Z,10.90
2019-03-03T23:03:53.777Z,10.70
2019-03-03T23:06:51.451Z,10.70
2019-03-03T23:09:56.378Z,10.60
2019-03-03T23:13:01.134Z,10.80
2019-03-03T23:15:44.194Z,10.80
2019-03-03T23:18:47.695Z,10.70
2019-03-03T23:21:28.030Z,10.70
2019-03-03T23:24:52.364Z,10.70
2019-03-03T23:27:19.885Z,10.40
2019-03-03T23:29:47.290Z,10.70
2019-03-03T23:32:15.100Z,10.70
2019-03-03T23:34:46.212Z,10.90
2019-03-03T23:37:14.806Z,10.80
2019-03-03T23:39:44.658Z,10.60
2019-03-03T23:42:13.980Z,10.70
2019-03-03T23:44:42.031Z,10.70
2019-03-03T23:47:18.969Z,10.80
2019-03-03T23:49:46.477Z,10.80
2019-03-03T23:52:19.343Z,10.70
2019-03-03T23:54:49.537Z,10.80
2019-03-03T23:57:17.828Z,10.70
2019-03-03T23:59:45.381Z,10.50
